Time;durP1;ratioP1;P1;durP2;ratioP2;P2;SDS_P1;SDS_P2;PMS_P1;PMS_P2;Temp;Humidity;BMP_temperature;BMP_pressure;BME280_temperature;BME280_humidity;BME280_pressure;Samples;Min_cycle;Max_cycle;Signal;HPM_P1;HPM_P2
2022/02/16 00:01:43;;;;;;;142.90;74.40;;;;;;;2.84;76.74;98323.48;432394;1271;97936;-40
2022/02/16 00:11:50;;;;;;;140.80;75.10;;;;;;;2.85;77.01;98309.41;432656;1270;108909;-41
2022/02/16 00:21:58;;;;;;;155.40;76.60;;;;;;;2.88;77.19;98301.52;432764;1269;97997;-41
2022/02/16 00:32:02;;;;;;;207.10;94.50;;;;;;;2.76;77.24;98299.60;432436;1271;111098;-41
2022/02/16 00:42:10;;;;;;;195.00;88.30;;;;;;;2.51;77.58;98291.01;432381;1270;109076;-42
2022/02/16 01:02:24;;;;;;;105.80;58.80;;;;;;;2.77;77.93;98261.13;432580;1270;108790;-42
2022/02/16 01:12:31;;;;;;;90.80;53.90;;;;;;;2.87;78.09;98249.09;432505;1270;98579;-44
2022/02/16 01:22:37;;;;;;;138.40;67.60;;;;;;;2.89;78.21;98248.04;432418;1270;110819;-42
2022/02/16 01:32:44;;;;;;;162.00;76.30;;;;;;;2.76;78.38;98232.76;432792;1269;109026;-41
2022/02/16 01:42:52;;;;;;;94.50;54.10;;;;;;;2.79;78.64;98217.15;432682;1270;98114;-42
2022/02/16 01:52:59;;;;;;;96.70;50.30;;;;;;;2.86;78.90;98202.92;432281;1270;108856;-41
2022/02/16 02:13:12;;;;;;;131.50;66.50;;;;;;;2.90;78.69;98182.21;434540;1262;111512;-44
2022/02/16 02:23:20;;;;;;;143.40;71.70;;;;;;;2.75;78.83;98176.92;433919;1267;109130;-41
2022/02/16 02:33:27;;;;;;;153.50;72.60;;;;;;;2.55;78.89;98166.54;434003;1267;109175;-44
2022/02/16 02:43:39;;;;;;;102.90;58.60;;;;;;;2.48;79.01;98161.91;434088;1268;96627;-40
2022/02/16 02:53:47;;;;;;;102.90;52.10;;;;;;;2.49;79.15;98154.85;434102;1267;108054;-43
2022/02/16 03:03:54;;;;;;;88.60;53.10;;;;;;;2.52;79.27;98159.62;433863;1267;97506;-44
2022/02/16 03:14:01;;;;;;;92.80;54.10;;;;;;;2.47;79.23;98157.48;433964;1267;111256;-48
2022/02/16 03:24:08;;;;;;;131.20;65.60;;;;;;;2.33;79.40;98155.54;433975;1267;108959;-41
2022/02/16 03:34:16;;;;;;;122.70;61.20;;;;;;;2.13;79.44;98144.77;434084;1268;97897;-41
2022/02/16 03:44:23;;;;;;;79.90;45.40;;;;;;;2.06;79.71;98139.73;433704;1267;111217;-43
2022/02/16 03:54:31;;;;;;;73.50;41.90;;;;;;;2.14;79.64;98135.19;433947;1268;108733;-44
2022/02/16 04:04:37;;;;;;;70.60;44.00;;;;;;;2.24;79.75;98138.08;433797;1268;98171;-42
2022/02/16 04:14:43;;;;;;;87.20;46.00;;;;;;;2.30;79.79;98137.96;433894;1268;108756;-41
2022/02/16 04:24:50;;;;;;;111.90;51.70;;;;;;;2.15;79.77;98136.00;433873;1268;108799;-44
2022/02/16 04:34:57;;;;;;;97.60;48.30;;;;;;;1.98;79.75;98123.86;433878;1267;97992;-41
2022/02/16 04:45:06;;;;;;;66.30;41.20;;;;;;;1.97;79.81;98106.00;434048;1268;111197;-43
2022/02/16 04:55:13;;;;;;;75.30;38.80;;;;;;;1.94;79.89;98093.17;433942;1268;108858;-44
2022/02/16 05:05:21;;;;;;;70.40;40.60;;;;;;;1.93;80.02;98088.69;433955;1267;97916;-41
2022/02/16 05:15:28;;;;;;;71.90;38.50;;;;;;;1.87;79.94;98084.23;433940;1267;107591;-42
2022/02/16 05:25:35;;;;;;;97.20;50.30;;;;;;;1.73;79.95;98087.25;434044;1267;96688;-40
2022/02/16 05:35:42;;;;;;;101.60;51.80;;;;;;;1.51;80.22;98079.61;434059;1267;97979;-42
2022/02/16 05:45:50;;;;;;;68.70;39.10;;;;;;;1.43;80.45;98082.43;434089;1267;111229;-40
2022/02/16 05:55:57;;;;;;;71.40;40.10;;;;;;;1.47;80.53;98069.89;433816;1267;107902;-40
2022/02/16 06:06:04;;;;;;;80.60;46.40;;;;;;;1.47;80.66;98059.39;433474;1267;97528;-44
2022/02/16 06:16:09;;;;;;;63.70;38.10;;;;;;;1.60;81.18;98061.75;433388;1269;111274;-43
2022/02/16 06:26:16;;;;;;;72.40;40.60;;;;;;;1.86;81.46;98043.17;433310;1269;108780;-45
2022/02/16 06:36:23;;;;;;;79.00;43.00;;;;;;;2.01;81.63;98024.60;433568;1267;97073;-41
2022/02/16 06:46:31;;;;;;;88.10;43.70;;;;;;;2.18;81.71;98013.59;433665;1267;110971;-44
2022/02/16 06:56:46;;;;;;;53.50;32.70;;;;;;;2.61;81.45;98002.75;433711;1267;108886;-43
2022/02/16 07:06:55;;;;;;;50.10;29.40;;;;;;;3.23;81.44;98003.20;429744;1267;5372209;-40
2022/02/16 07:17:04;;;;;;;63.20;34.60;;;;;;;3.84;81.24;98000.48;434131;1268;110053;-44
2022/02/16 07:27:11;;;;;;;58.10;34.40;;;;;;;4.34;81.01;97995.09;433397;1265;108871;-42
2022/02/16 07:37:18;;;;;;;38.10;25.60;;;;;;;5.21;80.79;97980.50;433938;1267;108862;-43
2022/02/16 07:47:25;;;;;;;55.20;32.50;;;;;;;6.44;80.20;97970.31;434094;1267;97898;-41
2022/02/16 07:57:32;;;;;;;48.00;29.20;;;;;;;7.79;79.16;97959.27;434121;1267;108790;-46
2022/02/16 08:07:40;;;;;;;43.70;26.80;;;;;;;8.53;77.64;97952.77;433863;1268;96672;-43
2022/02/16 08:17:47;;;;;;;41.70;22.80;;;;;;;8.88;75.94;97943.01;433940;1268;97979;-41
2022/02/16 08:27:54;;;;;;;38.30;22.70;;;;;;;9.41;75.26;97938.88;433969;1268;111174;-41
2022/02/16 08:38:02;;;;;;;29.60;19.00;;;;;;;9.45;73.10;97919.27;434062;1268;108938;-41
2022/02/16 08:48:09;;;;;;;32.80;19.50;;;;;;;8.56;71.50;97906.70;434023;1267;97906;-42
2022/02/16 09:08:26;;;;;;;26.50;17.10;;;;;;;8.29;70.96;97881.04;434108;1267;96686;-41
2022/02/16 09:18:33;;;;;;;30.80;15.50;;;;;;;8.27;70.08;97877.02;434084;1267;111146;-41
2022/02/16 09:28:39;;;;;;;26.00;15.50;;;;;;;8.38;68.58;97863.94;434128;1267;107408;-41
2022/02/16 09:38:46;;;;;;;24.20;15.00;;;;;;;8.39;68.46;97852.63;433701;1267;96731;-46
2022/02/16 09:48:53;;;;;;;27.40;16.30;;;;;;;8.48;68.15;97833.20;434004;1267;96665;-42
2022/02/16 09:59:00;;;;;;;26.50;15.00;;;;;;;8.71;67.74;97814.46;434065;1267;112833;-41
2022/02/16 10:09:04;;;;;;;25.40;12.60;;;;;;;8.73;66.62;97797.17;434049;1267;109056;-44
2022/02/16 10:19:12;;;;;;;21.20;10.50;;;;;;;8.84;66.38;97773.90;433975;1267;97903;-41
2022/02/16 10:29:22;;;;;;;11.70;7.50;;;;;;;8.85;64.80;97761.63;433119;1270;97792;-42
2022/02/16 10:39:29;;;;;;;12.50;7.30;;;;;;;9.03;64.24;97739.50;434095;1267;110812;-42
2022/02/16 10:49:38;;;;;;;13.70;7.20;;;;;;;9.14;62.50;97705.90;434119;1267;108829;-44
2022/02/16 10:59:47;;;;;;;11.50;8.30;;;;;;;9.12;61.48;97681.81;433913;1267;107729;-43
2022/02/16 11:09:56;;;;;;;27.10;12.20;;;;;;;9.20;59.57;97664.52;434180;1266;97941;-42
2022/02/16 11:20:19;;;;;;;15.40;8.80;;;;;;;9.52;60.67;97641.59;434188;1268;97909;-45
2022/02/16 11:30:31;;;;;;;14.30;8.90;;;;;;;9.38;60.25;97618.21;434050;1267;109919;-41
2022/02/16 11:40:36;;;;;;;21.70;10.70;;;;;;;9.18;59.80;97595.19;434181;1266;108809;-40
2022/02/16 12:00:57;;;;;;;24.60;9.10;;;;;;;9.58;59.50;97566.71;434056;1268;111071;-42
2022/02/16 12:11:05;;;;;;;17.80;6.50;;;;;;;9.63;58.79;97558.79;434069;1267;108238;-41
2022/02/16 12:21:13;;;;;;;11.90;7.10;;;;;;;9.71;58.51;97543.03;434067;1268;96663;-43
2022/02/16 12:31:22;;;;;;;11.90;7.60;;;;;;;9.86;58.68;97531.95;434087;1267;111255;-42
2022/02/16 12:41:30;;;;;;;13.00;7.10;;;;;;;9.87;58.63;97519.77;433976;1267;109284;-42
2022/02/16 12:51:39;;;;;;;12.00;6.80;;;;;;;9.65;58.14;97493.20;434154;1267;98018;-41
2022/02/16 13:01:47;;;;;;;12.70;5.30;;;;;;;9.70;57.89;97457.34;434034;1267;111780;-45
2022/02/16 13:11:55;;;;;;;13.90;6.40;;;;;;;9.87;57.66;97426.09;434084;1267;109403;-42
2022/02/16 13:22:05;;;;;;;7.70;5.20;;;;;;;9.93;57.78;97392.34;434073;1267;97913;-41
2022/02/16 13:32:28;;;;;;;7.20;4.30;;;;;;;9.95;57.32;97359.71;434012;1267;111005;-43
2022/02/16 13:42:55;;;;;;;9.30;4.30;;;;;;;9.82;56.90;97338.36;434001;1267;108832;-42
2022/02/16 13:53:04;;;;;;;5.10;3.70;;;;;;;9.84;56.91;97311.60;433889;1268;97922;-41
2022/02/16 14:23:28;;;;;;;6.80;4.50;;;;;;;9.26;56.57;97256.81;433884;1267;96779;-42
2022/02/16 14:33:35;;;;;;;6.00;3.80;;;;;;;9.12;57.17;97238.52;433947;1268;111317;-42
2022/02/16 14:43:42;;;;;;;13.70;5.70;;;;;;;8.94;57.17;97224.54;433950;1268;108819;-41
2022/02/16 14:53:50;;;;;;;10.90;5.70;;;;;;;8.76;57.30;97226.83;433985;1268;107287;-41
2022/02/16 15:03:57;;;;;;;11.40;6.00;;;;;;;8.70;57.28;97191.09;433871;1267;98178;-43
2022/02/16 15:24:10;;;;;;;15.90;8.20;;;;;;;8.49;57.75;97182.19;433928;1267;111166;-42
2022/02/16 15:34:17;;;;;;;19.10;9.50;;;;;;;8.36;58.27;97167.58;434037;1268;107691;-41
2022/02/16 15:44:25;;;;;;;12.80;6.50;;;;;;;8.25;58.33;97141.98;434036;1268;108867;-41
2022/02/16 15:54:33;;;;;;;19.60;8.30;;;;;;;8.21;58.37;97113.50;434092;1267;97903;-40
2022/02/16 16:04:49;;;;;;;15.20;7.40;;;;;;;8.15;58.71;97118.83;433171;1268;97866;-43
2022/02/16 16:15:00;;;;;;;13.50;6.90;;;;;;;8.10;58.80;97093.05;433998;1268;110954;-41
2022/02/16 16:25:11;;;;;;;14.70;6.90;;;;;;;8.12;58.80;97109.33;433944;1268;108801;-41
2022/02/16 16:35:19;;;;;;;16.60;7.10;;;;;;;8.12;58.75;97098.38;434095;1268;107787;-43
2022/02/16 16:45:26;;;;;;;11.30;6.60;;;;;;;8.11;58.99;97091.85;434014;1268;97502;-41
2022/02/16 16:55:33;;;;;;;14.30;5.90;;;;;;;8.11;58.93;97061.73;434026;1268;110931;-41
2022/02/16 17:05:40;;;;;;;12.70;6.30;;;;;;;8.14;58.68;97069.22;433922;1268;108827;-43
2022/02/16 17:15:48;;;;;;;11.40;4.20;;;;;;;8.14;58.85;97052.84;433656;1267;108883;-42
2022/02/16 17:25:55;;;;;;;9.70;5.10;;;;;;;7.91;59.86;97037.14;433751;1267;97929;-40
2022/02/16 17:36:01;;;;;;;10.80;5.80;;;;;;;7.77;60.39;97050.59;433631;1267;97790;-41
2022/02/16 17:46:09;;;;;;;15.50;7.80;;;;;;;7.75;60.81;97090.77;433119;1270;109959;-43
2022/02/16 17:56:17;;;;;;;15.10;8.30;;;;;;;7.76;61.03;97097.36;433722;1268;108829;-42
2022/02/16 18:06:24;;;;;;;8.90;5.30;;;;;;;7.78;61.19;97074.06;433800;1268;109085;-42
2022/02/16 18:16:33;;;;;;;14.50;6.10;;;;;;;7.80;61.59;97065.56;433940;1267;97903;-40
2022/02/16 18:26:40;;;;;;;16.70;8.10;;;;;;;7.80;61.77;97054.88;433753;1268;111145;-42
2022/02/16 18:36:47;;;;;;;8.40;5.30;;;;;;;7.80;62.04;97051.52;433687;1268;108671;-42
2022/02/16 18:46:56;;;;;;;9.40;5.50;;;;;;;7.87;62.14;97049.05;433726;1267;108830;-45
2022/02/16 18:57:03;;;;;;;;;;;;;;;7.85;62.59;97058.46;433965;1268;96653;-41
2022/02/16 19:07:11;;;;;;;7.10;4.20;;;;;;;7.83;62.97;97074.29;429362;1268;5395908;-44
2022/02/16 19:37:30;;;;;;;11.80;4.90;;;;;;;7.80;64.50;97035.52;432834;1269;111006;-45
2022/02/16 19:47:37;;;;;;;9.60;4.60;;;;;;;7.71;65.08;97012.08;432851;1269;108843;-40
2022/02/16 19:57:45;;;;;;;7.30;3.60;;;;;;;7.64;65.54;96970.46;432946;1271;96623;-41
2022/02/16 20:07:49;;;;;;;5.80;3.30;;;;;;;7.51;66.12;96940.31;433093;1268;108306;-42
2022/02/16 20:17:57;;;;;;;9.60;4.70;;;;;;;7.41;66.88;96931.14;434016;1268;97909;-40
2022/02/16 20:28:09;;;;;;;5.00;3.30;;;;;;;7.42;67.40;96931.57;434048;1268;111073;-40
2022/02/16 20:48:24;;;;;;;19.30;8.10;;;;;;;7.40;68.45;96930.92;434071;1267;97503;-41
2022/02/16 20:58:31;;;;;;;14.50;5.90;;;;;;;7.40;68.95;96904.58;434049;1268;111592;-42
2022/02/16 21:08:37;;;;;;;22.60;8.30;;;;;;;7.45;69.47;96890.89;433908;1267;107823;-43
2022/02/16 21:18:44;;;;;;;14.50;6.40;;;;;;;7.45;70.01;96869.84;434047;1268;97910;-45
2022/02/16 21:28:51;;;;;;;15.60;5.00;;;;;;;7.48;70.18;96837.94;433984;1268;109861;-42
2022/02/16 21:49:23;;;;;;;10.80;4.80;;;;;;;7.40;70.87;96769.69;434127;1267;97924;-41
2022/02/16 21:59:29;;;;;;;14.10;5.80;;;;;;;7.38;71.14;96752.16;433984;1267;107546;-42
2022/02/16 22:09:36;;;;;;;10.10;4.50;;;;;;;7.25;71.82;96737.58;433954;1268;96675;-40
2022/02/16 22:19:44;;;;;;;8.50;3.90;;;;;;;7.15;71.88;96725.22;434088;1267;111266;-43
2022/02/16 22:29:52;;;;;;;8.70;4.00;;;;;;;7.12;72.26;96705.86;433867;1268;109108;-42
2022/02/16 22:40:00;;;;;;;4.70;3.70;;;;;;;7.02;72.85;96680.66;433954;1265;97990;-41
2022/02/16 23:00:41;;;;;;;5.20;3.80;;;;;;;7.00;73.24;96669.40;433981;1266;97037;-43
2022/02/16 23:10:46;;;;;;;6.20;3.20;;;;;;;7.03;73.11;96640.67;433604;1268;111127;-41
2022/02/16 23:20:53;;;;;;;6.80;3.20;;;;;;;7.08;73.43;96616.77;433814;1268;108801;-42
2022/02/16 23:31:00;;;;;;;4.60;2.90;;;;;;;7.11;73.62;96589.54;433970;1267;97892;-44
2022/02/16 23:41:10;;;;;;;4.80;3.10;;;;;;;7.17;73.79;96553.65;433933;1267;111202;-43
2022/02/16 23:51:17;;;;;;;6.30;3.40;;;;;;;7.21;73.87;96526.42;433855;1267;108869;-44
